Far Sitella — 9VHY8 — position and weather

sailwx.info

Track history (hours):
 
Tides and Currents Weather Stations Pressure Air Temp Water Temp Dewpoint Dewpoint Depression Visibility Wind Speed Wind Dir Waves Ship Positions

Far Sitella

Last reported at 2017-Sep-25 06:00 UTC. Time now 2017-Sep-25 06:16 UTC.
Position N 04°30' W 002°58'.

Length 82 m; draft 6 m.

Type: Cargo ship. MMSI: 566783000.

Date/timePositionNaut miles runAvg speedWind from/ knotsBaromVisibWave heightAir tempDewpointWater temp
2017-Sep-25 06:00N 04°30' W 002°58'0 0.1
2017-Sep-25 05:30N 04°30' W 002°58'0 0.4
2017-Sep-25 04:59N 04°30' W 002°57'0 0.4
2017-Sep-25 04:29N 04°30' W 002°57'0 0.3
2017-Sep-25 04:00N 04°30' W 002°57'0 0.3
2017-Sep-25 03:28N 04°30' W 002°57'0 0.2
2017-Sep-25 03:00N 04°31' W 002°57'0 0.2
2017-Sep-25 02:28N 04°31' W 002°57'0 0.0
2017-Sep-25 01:59N 04°31' W 002°57'1 1.3
2017-Sep-25 01:29N 04°30' W 002°56'1 1.3
2017-Sep-25 00:59N 04°30' W 002°56'0 0.1
2017-Sep-25 00:28N 04°30' W 002°56'0 0.1
2017-Sep-24 23:59N 04°30' W 002°56'0 0.2
2017-Sep-24 23:29N 04°30' W 002°56'0 0.5
2017-Sep-24 22:57N 04°30' W 002°56'0 0.4
2017-Sep-24 22:29N 04°30' W 002°56'0 0.2
2017-Sep-24 22:00N 04°30' W 002°56'0 0.2
2017-Sep-24 21:30N 04°30' W 002°56'0 0.3
2017-Sep-24 21:00N 04°30' W 002°57'1 1.1
2017-Sep-24 20:30N 04°30' W 002°57'0 0.2
2017-Sep-24 19:59N 04°30' W 002°57'0 0.4
2017-Sep-24 19:29N 04°30' W 002°57'0 0.4
2017-Sep-24 18:59N 04°30' W 002°57'0 0.4
2017-Sep-24 18:30N 04°31' W 002°57'0 0.3
2017-Sep-24 17:59N 04°31' W 002°58'0 0.2
2017-Sep-24 17:29N 04°31' W 002°58'1 2.9
2017-Sep-24 17:00N 04°30' W 002°59'0 0.4
2017-Sep-24 16:30N 04°30' W 002°59'2 3.4
2017-Sep-24 15:59N 04°31' W 002°57'0 0.9
2017-Sep-24 15:29N 04°31' W 002°57'1 1.4
2017-Sep-24 15:01N 04°31' W 002°57'0 0.2
2017-Sep-24 14:30N 04°31' W 002°57'1 1.8
2017-Sep-24 14:01N 04°30' W 002°57'1 2.3
2017-Sep-24 13:30N 04°30' W 002°56'0 0.2
2017-Sep-24 12:59N 04°30' W 002°56'0 0.0
2017-Sep-24 12:29N 04°30' W 002°56'0 0.1
2017-Sep-24 12:00N 04°30' W 002°56'0 0.0
2017-Sep-24 11:29N 04°30' W 002°56'0 0.0
2017-Sep-24 10:59N 04°30' W 002°56'0 0.0
2017-Sep-24 10:30N 04°30' W 002°56'0 0.1
2017-Sep-24 10:00N 04°30' W 002°56'0 0.1
2017-Sep-24 09:30N 04°30' W 002°56'0 0.1
2017-Sep-24 09:00N 04°30' W 002°56'0 0.2
2017-Sep-24 08:29N 04°30' W 002°56'0 0.0
2017-Sep-24 07:59N 04°30' W 002°56'0 0.2
2017-Sep-24 07:30N 04°30' W 002°56'0 0.3
2017-Sep-24 07:00N 04°30' W 002°56'0 0.2
2017-Sep-24 06:29N 04°30' W 002°56'0 0.3
2017-Sep-24 06:00N 04°30' W 002°56'0 0.3
2017-Sep-24 05:30N 04°30' W 002°56'0 0.3
2017-Sep-24 05:00N 04°30' W 002°56'0 0.1
2017-Sep-24 04:29N 04°30' W 002°56'0 0.0
2017-Sep-24 03:59N 04°30' W 002°56'0 0.1
2017-Sep-24 03:30N 04°30' W 002°56'0 0.1
2017-Sep-24 03:00N 04°30' W 002°56'0 0.1
2017-Sep-24 02:29N 04°30' W 002°57'0 0.1
2017-Sep-24 01:59N 04°30' W 002°57'0 0.1
2017-Sep-24 01:29N 04°30' W 002°57'0 0.1
2017-Sep-24 01:00N 04°30' W 002°57'0 0.1
2017-Sep-24 00:29N 04°30' W 002°57'0 0.2
2017-Sep-23 23:59N 04°30' W 002°57'0 0.2
2017-Sep-23 23:30N 04°30' W 002°57'0 0.4
2017-Sep-23 22:59N 04°31' W 002°57'0 0.3
2017-Sep-23 22:29N 04°31' W 002°57'0 0.2
2017-Sep-23 22:00N 04°31' W 002°57'0 0.1
2017-Sep-23 21:30N 04°31' W 002°57'0 0.1
2017-Sep-23 21:00N 04°31' W 002°57'0 0.1
2017-Sep-23 20:29N 04°31' W 002°57'0 0.3
2017-Sep-23 19:59N 04°31' W 002°57'62 1.3
2017-Sep-21 21:13N 04°39' W 001°56'210.9
2017-Sep-21 21:00N 04°38' W 001°58'611.2
2017-Sep-21 20:30N 04°36' W 002°03'610.9
2017-Sep-21 19:59N 04°35' W 002°08'510.8
2017-Sep-21 19:29N 04°34' W 002°14'510.7
2017-Sep-21 19:00N 04°34' W 002°19'510.5
2017-Sep-21 18:30N 04°33' W 002°24'510.9
2017-Sep-21 17:59N 04°33' W 002°30'611.0
2017-Sep-21 17:29N 04°32' W 002°35'610.9
2017-Sep-21 16:59N 04°32' W 002°41'4 9.3
2017-Sep-21 16:30N 04°31' W 002°45'5 9.0
2017-Sep-21 16:00N 04°31' W 002°50'5 9.2
2017-Sep-21 15:29N 04°33' W 002°54'4 8.9
2017-Sep-21 14:59N 04°34' W 002°59'4 8.3
2017-Sep-21 14:29N 04°34' W 003°03'4 6.3
2017-Sep-21 13:51N 04°35' W 003°07'0 0.2
2017-Sep-21 12:58N 04°35' W 003°07'0 0.4
2017-Sep-21 12:28N 04°35' W 003°07'0 0.4
2017-Sep-21 12:00N 04°35' W 003°07'2 2.7
2017-Sep-21 11:12N 04°33' W 003°05'2 7.1
2017-Sep-21 10:56N 04°33' W 003°03'2 4.5
2017-Sep-21 10:30N 04°33' W 003°05'4 7.2
2017-Sep-21 09:59N 04°34' W 003°09'5 0.9
2017-Sep-21 04:29N 04°29' W 003°08'0 0.1
2017-Sep-21 02:55N 04°29' W 003°08'0 0.4
2017-Sep-21 02:25N 04°29' W 003°08'0 0.2
2017-Sep-21 01:39N 04°29' W 003°08'0 0.0
2017-Sep-21 01:28N 04°29' W 003°08'0 0.0
2017-Sep-21 01:00N 04°29' W 003°08'0 0.0
2017-Sep-21 00:29N 04°29' W 003°08'0 0.0
2017-Sep-20 23:59N 04°29' W 003°08'0 0.0
2017-Sep-20 23:30N 04°29' W 003°08'0 0.1
2017-Sep-20 22:59N 04°29' W 003°08'0 0.1
2017-Sep-20 22:27N 04°29' W 003°08'0 0.1
2017-Sep-20 21:59N 04°29' W 003°08'0 0.1
2017-Sep-20 21:30N 04°29' W 003°08'0 0.0
2017-Sep-20 20:53N 04°29' W 003°08'0 0.0
2017-Sep-20 20:29N 04°29' W 003°08'0 0.0
2017-Sep-20 20:00N 04°29' W 003°08'0 0.0
2017-Sep-20 19:29N 04°29' W 003°08'0 0.1
2017-Sep-20 18:47N 04°29' W 003°08'2 2.3
2017-Sep-20 17:53N 04°31' W 003°07'0 0.4
2017-Sep-20 17:26N 04°31' W 003°07'2 4.0
2017-Sep-20 16:59N 04°29' W 003°06'1 0.3
2017-Sep-20 15:03N 04°28' W 003°06'0 0.1
2017-Sep-20 14:53N 04°28' W 003°06'0 0.0
2017-Sep-20 14:00N 04°28' W 003°06'0 0.2
2017-Sep-20 13:30N 04°28' W 003°06'0 0.3
2017-Sep-20 12:58N 04°28' W 003°06'0 0.2
2017-Sep-20 12:30N 04°28' W 003°06'0 0.0
2017-Sep-20 11:57N 04°28' W 003°06'2 3.6
2017-Sep-20 11:26N 04°30' W 003°05'0 0.8
2017-Sep-20 10:57N 04°30' W 003°05'0 0.2
2017-Sep-20 10:29N 04°30' W 003°05'0 0.3
2017-Sep-20 09:59N 04°30' W 003°05'0 0.2
2017-Sep-20 09:29N 04°30' W 003°05'0 0.2
2017-Sep-20 09:00N 04°30' W 003°04'0 0.7
2017-Sep-20 08:27N 04°30' W 003°05'0 0.5
2017-Sep-20 08:00N 04°30' W 003°05'1 1.7
2017-Sep-20 07:25N 04°29' W 003°06'0 0.7
2017-Sep-20 07:00N 04°29' W 003°06'1 1.6
2017-Sep-20 06:30N 04°29' W 003°07'0 0.1
2017-Sep-20 05:57N 04°29' W 003°07'0 0.1
2017-Sep-20 05:28N 04°29' W 003°07'0 0.3
2017-Sep-20 04:54N 04°29' W 003°07'1 2.4
2017-Sep-20 04:30N 04°30' W 003°07'1 1.5
2017-Sep-20 03:47N 04°29' W 003°07'0 0.1
2017-Sep-20 03:25N 04°29' W 003°07'2 0.5
2017-Sep-20 00:10N 04°30' W 003°08'0 0.2
2017-Sep-20 00:00N 04°30' W 003°08'5 0.2
2017-Sep-18 20:59N 04°29' W 003°13'1 0.1
2017-Sep-18 15:00N 04°30' W 003°13'1 1.8
2017-Sep-18 14:19N 04°30' W 003°13'3 1.4
2017-Sep-18 12:00N 04°28' W 003°11'0 0.7
2017-Sep-18 11:28N 04°29' W 003°11'0 0.7
2017-Sep-18 10:57N 04°29' W 003°12'1 0.9
2017-Sep-18 10:22N 04°29' W 003°12'0 0.7
2017-Sep-18 09:58N 04°29' W 003°12'1 0.1
2017-Sep-18 01:41N 04°29' W 003°13'0 0.2
2017-Sep-18 01:26N 04°29' W 003°13'0 0.0
2017-Sep-18 00:12N 04°29' W 003°13'0 0.1
2017-Sep-17 23:36N 04°29' W 003°13'0 0.1
2017-Sep-17 23:24N 04°29' W 003°13'0 0.2
2017-Sep-17 22:55N 04°29' W 003°13'0 0.2
2017-Sep-17 22:24N 04°29' W 003°13'0 0.2
2017-Sep-17 21:45N 04°29' W 003°13'0 0.2
2017-Sep-17 21:29N 04°29' W 003°13'2 0.6
2017-Sep-17 18:25N 04°28' W 003°12'0 0.1
2017-Sep-17 13:26N 04°28' W 003°13'0 0.1
2017-Sep-17 12:47N 04°28' W 003°13'1 0.2
2017-Sep-17 09:10N 04°28' W 003°12'0 0.2
2017-Sep-17 08:53N 04°28' W 003°12'0 0.4
2017-Sep-17 08:28N 04°28' W 003°12'0 0.2
2017-Sep-17 07:54N 04°28' W 003°12'0 0.0
2017-Sep-17 07:30N 04°28' W 003°12'0 0.1
2017-Sep-17 04:14N 04°29' W 003°13'0 0.0
2017-Sep-17 03:59N 04°29' W 003°13'0 0.1
2017-Sep-17 03:24N 04°29' W 003°13'0 1.1
2017-Sep-17 02:59N 04°29' W 003°13'2 0.2
2017-Sep-16 20:07N 04°30' W 003°12'0 0.0
2017-Sep-16 19:53N 04°30' W 003°12'0 0.0
2017-Sep-16 19:24N 04°30' W 003°12'0 0.0
2017-Sep-16 18:41N 04°30' W 003°12'0 0.0
2017-Sep-16 18:15N 04°30' W 003°12'0 0.0
2017-Sep-16 17:49N 04°30' W 003°12'0 0.0
2017-Sep-16 16:43N 04°30' W 003°12'0 0.1
2017-Sep-16 13:57N 04°30' W 003°12'1 1.9
2017-Sep-16 13:28N 04°30' W 003°11'1 0.3
2017-Sep-16 11:05N 04°31' W 003°11'0 3.0
2017-Sep-16 11:00N 04°30' W 003°12'0 0.4
2017-Sep-16 10:04N 04°31' W 003°12'0 0.0
2017-Sep-16 09:50N 04°31' W 003°12'0 0.0
2017-Sep-16 08:50N 04°31' W 003°12'0 0.0
2017-Sep-16 08:28N 04°31' W 003°12'0 0.0
2017-Sep-16 07:54N 04°31' W 003°12'1 0.5
2017-Sep-16 05:31N 04°31' W 003°11'0 3.1
2017-Sep-16 05:23N 04°30' W 003°11'2 4.2
2017-Sep-16 04:59N 04°29' W 003°10'0 1.0
2017-Sep-16 04:30N 04°29' W 003°11'1 0.4
2017-Sep-16 01:22N 04°28' W 003°11'0 0.2
2017-Sep-16 00:58N 04°28' W 003°11'2 2.3
2017-Sep-16 00:11N 04°29' W 003°12'0 0.1
2017-Sep-16 00:00N 04°29' W 003°12'0 0.0
2017-Sep-15 23:30N 04°29' W 003°12'0 0.0
2017-Sep-15 19:58N 04°29' W 003°12'  
Track history (hours):
 
Tides and Currents Weather Stations Pressure Air Temp Water Temp Dewpoint Dewpoint Depression Visibility Wind Speed Wind Dir Waves Ship Positions

Far Sitella

Last reported at 2017-Sep-25 06:00 UTC. Time now 2017-Sep-25 06:16 UTC.
Position N 04°30' W 002°58'.

Length 82 m; draft 6 m.

Type: Cargo ship. MMSI: 566783000.

Date/timePositionNaut miles runAvg speedWind from/ knotsBaromVisibWave heightAir tempDewpointWater temp
2017-Sep-25 06:00N 04°30' W 002°58'0 0.1
2017-Sep-25 05:30N 04°30' W 002°58'0 0.4
2017-Sep-25 04:59N 04°30' W 002°57'0 0.4
2017-Sep-25 04:29N 04°30' W 002°57'0 0.3
2017-Sep-25 04:00N 04°30' W 002°57'0 0.3
2017-Sep-25 03:28N 04°30' W 002°57'0 0.2
2017-Sep-25 03:00N 04°31' W 002°57'0 0.2
2017-Sep-25 02:28N 04°31' W 002°57'0 0.0
2017-Sep-25 01:59N 04°31' W 002°57'1 1.3
2017-Sep-25 01:29N 04°30' W 002°56'1 1.3
2017-Sep-25 00:59N 04°30' W 002°56'0 0.1
2017-Sep-25 00:28N 04°30' W 002°56'0 0.1
2017-Sep-24 23:59N 04°30' W 002°56'0 0.2
2017-Sep-24 23:29N 04°30' W 002°56'0 0.5
2017-Sep-24 22:57N 04°30' W 002°56'0 0.4
2017-Sep-24 22:29N 04°30' W 002°56'0 0.2
2017-Sep-24 22:00N 04°30' W 002°56'0 0.2
2017-Sep-24 21:30N 04°30' W 002°56'0 0.3
2017-Sep-24 21:00N 04°30' W 002°57'1 1.1
2017-Sep-24 20:30N 04°30' W 002°57'0 0.2
2017-Sep-24 19:59N 04°30' W 002°57'0 0.4
2017-Sep-24 19:29N 04°30' W 002°57'0 0.4
2017-Sep-24 18:59N 04°30' W 002°57'0 0.4
2017-Sep-24 18:30N 04°31' W 002°57'0 0.3
2017-Sep-24 17:59N 04°31' W 002°58'0 0.2
2017-Sep-24 17:29N 04°31' W 002°58'1 2.9
2017-Sep-24 17:00N 04°30' W 002°59'0 0.4
2017-Sep-24 16:30N 04°30' W 002°59'2 3.4
2017-Sep-24 15:59N 04°31' W 002°57'0 0.9
2017-Sep-24 15:29N 04°31' W 002°57'1 1.4
2017-Sep-24 15:01N 04°31' W 002°57'0 0.2
2017-Sep-24 14:30N 04°31' W 002°57'1 1.8
2017-Sep-24 14:01N 04°30' W 002°57'1 2.3
2017-Sep-24 13:30N 04°30' W 002°56'0 0.2
2017-Sep-24 12:59N 04°30' W 002°56'0 0.0
2017-Sep-24 12:29N 04°30' W 002°56'0 0.1
2017-Sep-24 12:00N 04°30' W 002°56'0 0.0
2017-Sep-24 11:29N 04°30' W 002°56'0 0.0
2017-Sep-24 10:59N 04°30' W 002°56'0 0.0
2017-Sep-24 10:30N 04°30' W 002°56'0 0.1
2017-Sep-24 10:00N 04°30' W 002°56'0 0.1
2017-Sep-24 09:30N 04°30' W 002°56'0 0.1
2017-Sep-24 09:00N 04°30' W 002°56'0 0.2
2017-Sep-24 08:29N 04°30' W 002°56'0 0.0
2017-Sep-24 07:59N 04°30' W 002°56'0 0.2
2017-Sep-24 07:30N 04°30' W 002°56'0 0.3
2017-Sep-24 07:00N 04°30' W 002°56'0 0.2
2017-Sep-24 06:29N 04°30' W 002°56'0 0.3
2017-Sep-24 06:00N 04°30' W 002°56'0 0.3
2017-Sep-24 05:30N 04°30' W 002°56'0 0.3
2017-Sep-24 05:00N 04°30' W 002°56'0 0.1
2017-Sep-24 04:29N 04°30' W 002°56'0 0.0
2017-Sep-24 03:59N 04°30' W 002°56'0 0.1
2017-Sep-24 03:30N 04°30' W 002°56'0 0.1
2017-Sep-24 03:00N 04°30' W 002°56'0 0.1
2017-Sep-24 02:29N 04°30' W 002°57'0 0.1
2017-Sep-24 01:59N 04°30' W 002°57'0 0.1
2017-Sep-24 01:29N 04°30' W 002°57'0 0.1
2017-Sep-24 01:00N 04°30' W 002°57'0 0.1
2017-Sep-24 00:29N 04°30' W 002°57'0 0.2
2017-Sep-23 23:59N 04°30' W 002°57'0 0.2
2017-Sep-23 23:30N 04°30' W 002°57'0 0.4
2017-Sep-23 22:59N 04°31' W 002°57'0 0.3
2017-Sep-23 22:29N 04°31' W 002°57'0 0.2
2017-Sep-23 22:00N 04°31' W 002°57'0 0.1
2017-Sep-23 21:30N 04°31' W 002°57'0 0.1
2017-Sep-23 21:00N 04°31' W 002°57'0 0.1
2017-Sep-23 20:29N 04°31' W 002°57'0 0.3
2017-Sep-23 19:59N 04°31' W 002°57'62 1.3
2017-Sep-21 21:13N 04°39' W 001°56'210.9
2017-Sep-21 21:00N 04°38' W 001°58'611.2
2017-Sep-21 20:30N 04°36' W 002°03'610.9
2017-Sep-21 19:59N 04°35' W 002°08'510.8
2017-Sep-21 19:29N 04°34' W 002°14'510.7
2017-Sep-21 19:00N 04°34' W 002°19'510.5
2017-Sep-21 18:30N 04°33' W 002°24'510.9
2017-Sep-21 17:59N 04°33' W 002°30'611.0
2017-Sep-21 17:29N 04°32' W 002°35'610.9
2017-Sep-21 16:59N 04°32' W 002°41'4 9.3
2017-Sep-21 16:30N 04°31' W 002°45'5 9.0
2017-Sep-21 16:00N 04°31' W 002°50'5 9.2
2017-Sep-21 15:29N 04°33' W 002°54'4 8.9
2017-Sep-21 14:59N 04°34' W 002°59'4 8.3
2017-Sep-21 14:29N 04°34' W 003°03'4 6.3
2017-Sep-21 13:51N 04°35' W 003°07'0 0.2
2017-Sep-21 12:58N 04°35' W 003°07'0 0.4
2017-Sep-21 12:28N 04°35' W 003°07'0 0.4
2017-Sep-21 12:00N 04°35' W 003°07'2 2.7
2017-Sep-21 11:12N 04°33' W 003°05'2 7.1
2017-Sep-21 10:56N 04°33' W 003°03'2 4.5
2017-Sep-21 10:30N 04°33' W 003°05'4 7.2
2017-Sep-21 09:59N 04°34' W 003°09'5 0.9
2017-Sep-21 04:29N 04°29' W 003°08'0 0.1
2017-Sep-21 02:55N 04°29' W 003°08'0 0.4
2017-Sep-21 02:25N 04°29' W 003°08'0 0.2
2017-Sep-21 01:39N 04°29' W 003°08'0 0.0
2017-Sep-21 01:28N 04°29' W 003°08'0 0.0
2017-Sep-21 01:00N 04°29' W 003°08'0 0.0
2017-Sep-21 00:29N 04°29' W 003°08'0 0.0
2017-Sep-20 23:59N 04°29' W 003°08'0 0.0
2017-Sep-20 23:30N 04°29' W 003°08'0 0.1
2017-Sep-20 22:59N 04°29' W 003°08'0 0.1
2017-Sep-20 22:27N 04°29' W 003°08'0 0.1
2017-Sep-20 21:59N 04°29' W 003°08'0 0.1
2017-Sep-20 21:30N 04°29' W 003°08'0 0.0
2017-Sep-20 20:53N 04°29' W 003°08'0 0.0
2017-Sep-20 20:29N 04°29' W 003°08'0 0.0
2017-Sep-20 20:00N 04°29' W 003°08'0 0.0
2017-Sep-20 19:29N 04°29' W 003°08'0 0.1
2017-Sep-20 18:47N 04°29' W 003°08'2 2.3
2017-Sep-20 17:53N 04°31' W 003°07'0 0.4
2017-Sep-20 17:26N 04°31' W 003°07'2 4.0
2017-Sep-20 16:59N 04°29' W 003°06'1 0.3
2017-Sep-20 15:03N 04°28' W 003°06'0 0.1
2017-Sep-20 14:53N 04°28' W 003°06'0 0.0
2017-Sep-20 14:00N 04°28' W 003°06'0 0.2
2017-Sep-20 13:30N 04°28' W 003°06'0 0.3
2017-Sep-20 12:58N 04°28' W 003°06'0 0.2
2017-Sep-20 12:30N 04°28' W 003°06'0 0.0
2017-Sep-20 11:57N 04°28' W 003°06'2 3.6
2017-Sep-20 11:26N 04°30' W 003°05'0 0.8
2017-Sep-20 10:57N 04°30' W 003°05'0 0.2
2017-Sep-20 10:29N 04°30' W 003°05'0 0.3
2017-Sep-20 09:59N 04°30' W 003°05'0 0.2
2017-Sep-20 09:29N 04°30' W 003°05'0 0.2
2017-Sep-20 09:00N 04°30' W 003°04'0 0.7
2017-Sep-20 08:27N 04°30' W 003°05'0 0.5
2017-Sep-20 08:00N 04°30' W 003°05'1 1.7
2017-Sep-20 07:25N 04°29' W 003°06'0 0.7
2017-Sep-20 07:00N 04°29' W 003°06'1 1.6
2017-Sep-20 06:30N 04°29' W 003°07'0 0.1
2017-Sep-20 05:57N 04°29' W 003°07'0 0.1
2017-Sep-20 05:28N 04°29' W 003°07'0 0.3
2017-Sep-20 04:54N 04°29' W 003°07'1 2.4
2017-Sep-20 04:30N 04°30' W 003°07'1 1.5
2017-Sep-20 03:47N 04°29' W 003°07'0 0.1
2017-Sep-20 03:25N 04°29' W 003°07'2 0.5
2017-Sep-20 00:10N 04°30' W 003°08'0 0.2
2017-Sep-20 00:00N 04°30' W 003°08'5 0.2
2017-Sep-18 20:59N 04°29' W 003°13'1 0.1
2017-Sep-18 15:00N 04°30' W 003°13'1 1.8
2017-Sep-18 14:19N 04°30' W 003°13'3 1.4
2017-Sep-18 12:00N 04°28' W 003°11'0 0.7
2017-Sep-18 11:28N 04°29' W 003°11'0 0.7
2017-Sep-18 10:57N 04°29' W 003°12'1 0.9
2017-Sep-18 10:22N 04°29' W 003°12'0 0.7
2017-Sep-18 09:58N 04°29' W 003°12'1 0.1
2017-Sep-18 01:41N 04°29' W 003°13'0 0.2
2017-Sep-18 01:26N 04°29' W 003°13'0 0.0
2017-Sep-18 00:12N 04°29' W 003°13'0 0.1
2017-Sep-17 23:36N 04°29' W 003°13'0 0.1
2017-Sep-17 23:24N 04°29' W 003°13'0 0.2
2017-Sep-17 22:55N 04°29' W 003°13'0 0.2
2017-Sep-17 22:24N 04°29' W 003°13'0 0.2
2017-Sep-17 21:45N 04°29' W 003°13'0 0.2
2017-Sep-17 21:29N 04°29' W 003°13'2 0.6
2017-Sep-17 18:25N 04°28' W 003°12'0 0.1
2017-Sep-17 13:26N 04°28' W 003°13'0 0.1
2017-Sep-17 12:47N 04°28' W 003°13'1 0.2
2017-Sep-17 09:10N 04°28' W 003°12'0 0.2
2017-Sep-17 08:53N 04°28' W 003°12'0 0.4
2017-Sep-17 08:28N 04°28' W 003°12'0 0.2
2017-Sep-17 07:54N 04°28' W 003°12'0 0.0
2017-Sep-17 07:30N 04°28' W 003°12'0 0.1
2017-Sep-17 04:14N 04°29' W 003°13'0 0.0
2017-Sep-17 03:59N 04°29' W 003°13'0 0.1
2017-Sep-17 03:24N 04°29' W 003°13'0 1.1
2017-Sep-17 02:59N 04°29' W 003°13'2 0.2
2017-Sep-16 20:07N 04°30' W 003°12'0 0.0
2017-Sep-16 19:53N 04°30' W 003°12'0 0.0
2017-Sep-16 19:24N 04°30' W 003°12'0 0.0
2017-Sep-16 18:41N 04°30' W 003°12'0 0.0
2017-Sep-16 18:15N 04°30' W 003°12'0 0.0
2017-Sep-16 17:49N 04°30' W 003°12'0 0.0
2017-Sep-16 16:43N 04°30' W 003°12'0 0.1
2017-Sep-16 13:57N 04°30' W 003°12'1 1.9
2017-Sep-16 13:28N 04°30' W 003°11'1 0.3
2017-Sep-16 11:05N 04°31' W 003°11'0 3.0
2017-Sep-16 11:00N 04°30' W 003°12'0 0.4
2017-Sep-16 10:04N 04°31' W 003°12'0 0.0
2017-Sep-16 09:50N 04°31' W 003°12'0 0.0
2017-Sep-16 08:50N 04°31' W 003°12'0 0.0
2017-Sep-16 08:28N 04°31' W 003°12'0 0.0
2017-Sep-16 07:54N 04°31' W 003°12'1 0.5
2017-Sep-16 05:31N 04°31' W 003°11'0 3.1
2017-Sep-16 05:23N 04°30' W 003°11'2 4.2
2017-Sep-16 04:59N 04°29' W 003°10'0 1.0
2017-Sep-16 04:30N 04°29' W 003°11'1 0.4
2017-Sep-16 01:22N 04°28' W 003°11'0 0.2
2017-Sep-16 00:58N 04°28' W 003°11'2 2.3
2017-Sep-16 00:11N 04°29' W 003°12'0 0.1
2017-Sep-16 00:00N 04°29' W 003°12'0 0.0
2017-Sep-15 23:30N 04°29' W 003°12'0 0.0
2017-Sep-15 19:58N 04°29' W 003°12'  

Dump ship's entire track history